VPY weather

Chimoio Airport
Chimoio, Manica Province, Mozambique

Public forecast

Using degrees Celsius for public forecast. Weather courtesy of forecast.io.

Current aviation weather report (METAR) for Chimoio Airport

Retrieved 2020/02/21 05:00 UTC (2 hours ago):

FQCH 210500Z /////KT 0300 FG FEW015 22/22 Q1017

Aviation forecast (TAF) for Chimoio Airport

Retrieved 2020/02/21 06:00 UTC (52 minutes ago):

TAF FQCH 210400Z 2106/2206 02012KT 9999 SCT018 TX30/2113Z TN23/2203Z BECMG 2112/2114 08010KT BECMG 2118/2120 22010KT